Time;durP1;ratioP1;P1;durP2;ratioP2;P2;SDS_P1;SDS_P2;PMS_P1;PMS_P2;Temp;Humidity;BMP_temperature;BMP_pressure;BME280_temperature;BME280_humidity;BME280_pressure;Samples;Min_cycle;Max_cycle;Signal;HPM_P1;HPM_P2
2024/04/12 00:01:48;;;;;;;;;;;;;;;14.07;100.00;101708.64;106161;1257;74239;-87
2024/04/12 00:04:17;;;;;;;;;;;;;;;13.95;100.00;101709.17;106060;1256;68567;-83
2024/04/12 00:06:44;;;;;;;;;;;;;;;13.87;100.00;101708.16;106178;1256;70501;-83
2024/04/12 00:09:18;;;;;;;;;;;;;;;13.77;100.00;101710.23;106032;1256;62201;-83
2024/04/12 00:11:52;;;;;;;;;;;;;;;13.66;100.00;101710.46;105925;1262;62134;-87
2024/04/12 00:14:23;;;;;;;;;;;;;;;13.55;100.00;101707.56;105928;1257;73666;-87
2024/04/12 00:16:52;;;;;;;;;;;;;;;13.49;100.00;101710.18;106163;1258;68562;-87
2024/04/12 00:19:21;;;;;;;;;;;;;;;13.43;100.00;101711.85;105985;1256;72364;-88
2024/04/12 00:21:52;;;;;;;;;;;;;;;13.35;100.00;101718.63;107269;1262;61947;-87
2024/04/12 00:24:23;;;;;;;;;;;;;;;13.26;100.00;101715.83;105950;1257;62108;-82
2024/04/12 00:26:53;;;;;;;;;;;;;;;13.17;100.00;101718.77;106077;1262;74269;-83
2024/04/12 00:29:31;;;;;;;;;;;;;;;13.09;100.00;101720.92;106050;1262;68531;-87
2024/04/12 00:32:13;;;;;;;;;;;;;;;13.02;100.00;101722.30;105896;1256;73196;-87
2024/04/12 00:34:47;;;;;;;;;;;;;;;12.95;100.00;101723.30;106181;1260;62168;-86
2024/04/12 00:37:16;;;;;;;;;;;;;;;12.88;100.00;101728.20;105994;1262;61939;-82
2024/04/12 00:39:48;;;;;;;;;;;;;;;12.81;100.00;101730.67;105899;1263;74593;-87
2024/04/12 00:42:24;;;;;;;;;;;;;;;12.74;100.00;101730.62;106023;1262;67644;-82
2024/04/12 00:44:54;;;;;;;;;;;;;;;12.66;100.00;101730.33;106236;1260;71904;-82
2024/04/12 00:47:22;;;;;;;;;;;;;;;12.60;100.00;101729.31;106372;1257;62047;-86
2024/04/12 00:49:50;;;;;;;;;;;;;;;12.57;100.00;101728.45;106834;1260;62162;-86
2024/04/12 00:52:22;;;;;;;;;;;;;;;12.52;100.00;101727.36;106090;1262;75929;-82
2024/04/12 00:54:54;;;;;;;;;;;;;;;12.47;100.00;101730.94;106078;1261;68548;-87
2024/04/12 00:57:22;;;;;;;;;;;;;;;12.43;100.00;101727.63;105954;1262;72377;-87
2024/04/12 00:59:51;;;;;;;;;;;;;;;12.39;100.00;101730.33;106003;1260;62038;-87
2024/04/12 01:02:21;;;;;;;;;;;;;;;12.35;100.00;101725.90;106053;1262;62041;-86
2024/04/12 01:04:49;;;;;;;;;;;;;;;12.33;100.00;101726.38;106503;1264;75906;-87
2024/04/12 01:07:18;;;;;;;;;;;;;;;12.34;100.00;101728.46;106054;1256;68548;-82
2024/04/12 01:09:45;;;;;;;;;;;;;;;12.29;100.00;101728.20;106116;1261;71481;-87
2024/04/12 01:12:17;;;;;;;;;;;;;;;12.27;100.00;101727.30;106057;1258;62032;-87
2024/04/12 01:14:44;;;;;;;;;;;;;;;12.21;100.00;101728.23;106019;1260;61997;-86
2024/04/12 01:17:12;;;;;;;;;;;;;;;12.15;100.00;101729.23;106168;1260;75993;-82
2024/04/12 01:19:40;;;;;;;;;;;;;;;12.15;100.00;101727.13;106043;1261;68470;-86
2024/04/12 01:22:08;;;;;;;;;;;;;;;12.12;100.00;101724.04;106146;1262;71440;-83
2024/04/12 01:24:39;;;;;;;;;;;;;;;12.08;100.00;101726.52;106069;1262;62093;-82
2024/04/12 01:27:06;;;;;;;;;;;;;;;12.03;100.00;101723.78;106048;1257;62853;-87
2024/04/12 01:29:34;;;;;;;;;;;;;;;12.02;100.00;101724.82;105946;1263;75491;-83
2024/04/12 01:32:04;;;;;;;;;;;;;;;11.98;100.00;101726.09;106088;1260;69244;-83
2024/04/12 01:34:31;;;;;;;;;;;;;;;11.87;100.00;101722.51;106233;1262;71753;-87
2024/04/12 01:37:01;;;;;;;;;;;;;;;11.81;100.00;101721.27;106078;1258;62458;-83
2024/04/12 01:39:28;;;;;;;;;;;;;;;11.76;100.00;101715.03;105996;1260;62132;-82
2024/04/12 01:41:56;;;;;;;;;;;;;;;11.73;100.00;101712.08;106046;1256;76034;-83
2024/04/12 01:44:24;;;;;;;;;;;;;;;11.65;100.00;101707.40;105939;1257;68537;-83
2024/04/12 01:46:56;;;;;;;;;;;;;;;11.59;100.00;101703.06;106034;1262;70837;-83
2024/04/12 01:49:24;;;;;;;;;;;;;;;11.55;100.00;101704.55;106553;1263;62054;-83
2024/04/12 01:51:55;;;;;;;;;;;;;;;11.53;100.00;101695.59;105986;1257;62060;-83
2024/04/12 01:54:23;;;;;;;;;;;;;;;11.48;100.00;101693.94;105984;1261;75451;-83
2024/04/12 01:56:51;;;;;;;;;;;;;;;11.43;100.00;101695.80;105960;1263;68525;-87
2024/04/12 01:59:21;;;;;;;;;;;;;;;11.39;100.00;101694.77;105963;1259;70664;-83
2024/04/12 02:01:52;;;;;;;;;;;;;;;11.32;100.00;101693.36;106379;1263;61952;-83
2024/04/12 02:04:21;;;;;;;;;;;;;;;11.26;100.00;101691.02;106026;1257;62159;-83
2024/04/12 02:06:50;;;;;;;;;;;;;;;11.22;100.00;101692.89;106029;1261;75615;-87
2024/04/12 02:09:19;;;;;;;;;;;;;;;11.17;100.00;101692.34;106017;1258;68634;-83
2024/04/12 02:11:52;;;;;;;;;;;;;;;11.15;100.00;101690.47;105962;1256;71896;-87
2024/04/12 02:14:20;;;;;;;;;;;;;;;11.11;100.00;101692.10;105900;1261;62208;-83
2024/04/12 02:16:50;;;;;;;;;;;;;;;11.07;100.00;101696.74;106127;1258;62204;-82
2024/04/12 02:19:21;;;;;;;;;;;;;;;11.02;100.00;101696.13;105849;1257;74287;-82
2024/04/12 02:21:50;;;;;;;;;;;;;;;10.95;100.00;101692.54;106017;1261;68707;-87
2024/04/12 02:24:18;;;;;;;;;;;;;;;10.91;100.00;101689.36;105934;1257;71462;-82
2024/04/12 02:26:46;;;;;;;;;;;;;;;10.91;100.00;101691.44;106004;1257;61978;-87
2024/04/12 02:29:14;;;;;;;;;;;;;;;10.88;100.00;101693.08;106397;1260;62181;-82
2024/04/12 02:31:43;;;;;;;;;;;;;;;10.82;100.00;101691.95;106142;1258;75683;-87
2024/04/12 02:34:12;;;;;;;;;;;;;;;10.79;100.00;101691.69;106029;1260;67605;-83
2024/04/12 02:36:39;;;;;;;;;;;;;;;10.74;100.00;101690.58;106058;1258;72713;-87
2024/04/12 02:39:08;;;;;;;;;;;;;;;10.65;100.00;101692.63;106075;1262;62781;-83
2024/04/12 02:41:37;;;;;;;;;;;;;;;10.53;100.00;101696.27;106097;1260;60397;-83
2024/04/12 02:44:06;;;;;;;;;;;;;;;10.47;100.00;101697.14;106408;1262;73352;-86
2024/04/12 02:46:35;;;;;;;;;;;;;;;10.41;100.00;101697.81;106061;1263;68335;-82
2024/04/12 02:49:10;;;;;;;;;;;;;;;10.35;100.00;101698.48;105936;1257;71475;-82
2024/04/12 02:51:47;;;;;;;;;;;;;;;10.32;100.00;101701.45;106084;1257;61941;-83
2024/04/12 02:54:14;;;;;;;;;;;;;;;10.24;100.00;101699.21;106135;1257;61999;-86
2024/04/12 02:56:44;;;;;;;;;;;;;;;10.17;100.00;101700.32;106024;1261;75439;-83
2024/04/12 02:59:14;;;;;;;;;;;;;;;10.17;100.00;101705.78;106682;1257;67817;-86
2024/04/12 03:01:41;;;;;;;;;;;;;;;10.16;100.00;101705.49;106030;1257;72736;-81
2024/04/12 03:04:10;;;;;;;;;;;;;;;10.12;100.00;101706.35;105818;1258;62053;-86
2024/04/12 03:06:38;;;;;;;;;;;;;;;10.10;100.00;101705.82;105987;1257;62045;-82
2024/04/12 03:09:05;;;;;;;;;;;;;;;10.06;100.00;101708.01;106038;1263;75655;-87
2024/04/12 03:11:33;;;;;;;;;;;;;;;10.01;100.00;101707.66;106251;1257;68472;-82
2024/04/12 03:14:09;;;;;;;;;;;;;;;10.02;100.00;101708.13;106105;1260;70473;-87
2024/04/12 03:16:39;;;;;;;;;;;;;;;10.04;100.00;101710.79;106015;1258;62671;-87
2024/04/12 03:19:14;;;;;;;;;;;;;;;10.07;100.00;101711.40;105961;1261;61956;-87
2024/04/12 03:21:43;;;;;;;;;;;;;;;10.10;100.00;101712.87;106033;1258;74282;-87
2024/04/12 03:24:11;;;;;;;;;;;;;;;10.13;100.00;101712.98;106047;1256;67329;-86
2024/04/12 03:26:43;;;;;;;;;;;;;;;10.17;100.00;101710.03;106251;1260;72737;-82
2024/04/12 03:29:12;;;;;;;;;;;;;;;10.21;100.00;101711.45;106039;1258;61961;-83
2024/04/12 03:31:40;;;;;;;;;;;;;;;10.24;100.00;101709.73;106001;1263;62051;-83
2024/04/12 03:34:08;;;;;;;;;;;;;;;10.25;100.00;101708.98;106054;1261;75568;-83
2024/04/12 03:41:51;;;;;;;;;;;;;;;10.26;100.00;101713.88;106080;1257;62082;-82
2024/04/12 03:44:19;;;;;;;;;;;;;;;10.29;100.00;101714.11;105995;1257;61106;-82
2024/04/12 03:46:50;;;;;;;;;;;;;;;10.35;100.00;101717.71;106036;1262;75540;-87
2024/04/12 03:49:20;;;;;;;;;;;;;;;10.38;100.00;101717.22;105960;1261;68849;-82
2024/04/12 03:51:57;;;;;;;;;;;;;;;10.49;100.00;101722.48;106170;1261;75738;-87
2024/04/12 03:54:25;;;;;;;;;;;;;;;10.58;100.00;101727.07;105899;1263;62333;-84
2024/04/12 03:57:06;;;;;;;;;;;;;;;10.62;100.00;101726.50;105965;1258;62159;-84
2024/04/12 03:59:38;;;;;;;;;;;;;;;10.70;100.00;101729.23;105974;1263;75489;-84
2024/04/12 04:02:08;;;;;;;;;;;;;;;10.77;100.00;101728.52;106002;1257;68538;-83
2024/04/12 04:04:37;;;;;;;;;;;;;;;10.85;100.00;101725.96;105824;1257;71967;-83
2024/04/12 04:07:05;;;;;;;;;;;;;;;10.98;100.00;101727.91;106145;1257;62173;-83
2024/04/12 04:09:32;;;;;;;;;;;;;;;11.14;100.00;101732.46;106182;1257;61964;-87
2024/04/12 04:12:01;;;;;;;;;;;;;;;11.30;100.00;101731.20;105974;1258;75828;-82
2024/04/12 04:14:28;;;;;;;;;;;;;;;11.45;100.00;101729.65;105971;1258;67428;-82
2024/04/12 04:16:56;;;;;;;;;;;;;;;11.59;100.00;101730.52;106030;1257;72991;-85
2024/04/12 04:19:31;;;;;;;;;;;;;;;11.75;100.00;101730.30;105943;1256;62109;-82
2024/04/12 04:22:02;;;;;;;;;;;;;;;11.91;100.00;101735.31;105972;1257;62210;-86
2024/04/12 04:24:31;;;;;;;;;;;;;;;12.06;100.00;101733.46;106046;1261;75500;-88
2024/04/12 04:27:00;;;;;;;;;;;;;;;12.20;100.00;101735.46;106032;1258;67579;-87
2024/04/12 04:29:27;;;;;;;;;;;;;;;12.34;100.00;101730.66;106015;1260;73140;-87
2024/04/12 04:31:56;;;;;;;;;;;;;;;12.50;100.00;101734.53;106361;1262;62165;-86
2024/04/12 04:34:25;;;;;;;;;;;;;;;12.64;100.00;101734.82;106192;1257;62236;-82
2024/04/12 04:36:56;;;;;;;;;;;;;;;12.77;100.00;101734.80;106005;1256;75541;-82
2024/04/12 04:39:24;;;;;;;;;;;;;;;12.89;100.00;101738.08;106049;1256;68474;-86
2024/04/12 04:41:53;;;;;;;;;;;;;;;13.02;100.00;101735.92;106090;1261;72768;-82
2024/04/12 04:44:22;;;;;;;;;;;;;;;13.15;100.00;101734.90;106154;1257;62213;-87
2024/04/12 04:46:49;;;;;;;;;;;;;;;13.24;100.00;101735.45;106085;1260;61958;-86
2024/04/12 04:49:18;;;;;;;;;;;;;;;13.33;100.00;101737.55;105968;1257;75907;-86
2024/04/12 04:51:46;;;;;;;;;;;;;;;13.41;100.00;101740.62;106145;1261;67264;-82
2024/04/12 04:54:14;;;;;;;;;;;;;;;13.49;100.00;101744.27;105967;1260;70897;-87
2024/04/12 04:56:42;;;;;;;;;;;;;;;13.58;100.00;101744.48;106028;1258;62185;-87
2024/04/12 04:59:15;;;;;;;;;;;;;;;13.70;100.00;101744.59;107009;1257;63496;-86
2024/04/12 05:01:45;;;;;;;;;;;;;;;13.80;100.00;101745.95;106440;1263;77481;-82
2024/04/12 05:04:15;;;;;;;;;;;;;;;13.88;100.00;101748.60;106317;1257;68812;-82
2024/04/12 05:06:43;;;;;;;;;;;;;;;13.96;100.00;101754.02;106317;1257;73219;-83
2024/04/12 05:09:18;;;;;;;;;;;;;;;14.02;100.00;101756.40;106509;1257;62184;-86
2024/04/12 05:11:46;;;;;;;;;;;;;;;14.10;100.00;101761.59;107147;1261;61944;-83
2024/04/12 05:14:13;;;;;;;;;;;;;;;14.15;100.00;101758.84;106408;1258;75533;-83
2024/04/12 05:16:42;;;;;;;;;;;;;;;14.20;100.00;101761.01;106011;1257;67503;-82
2024/04/12 05:19:09;;;;;;;;;;;;;;;14.24;100.00;101758.48;105921;1260;71594;-82
2024/04/12 05:21:38;;;;;;;;;;;;;;;14.31;100.00;101756.19;106072;1257;62060;-86
2024/04/12 05:24:09;;;;;;;;;;;;;;;14.32;100.00;101759.93;106029;1256;62134;-87
2024/04/12 05:26:37;;;;;;;;;;;;;;;14.39;100.00;101758.61;106618;1257;75746;-87
2024/04/12 05:29:06;;;;;;;;;;;;;;;14.46;100.00;101762.53;106096;1260;67986;-86
2024/04/12 05:31:33;;;;;;;;;;;;;;;14.55;100.00;101759.27;106024;1261;74957;-86
2024/04/12 05:34:04;;;;;;;;;;;;;;;14.62;100.00;101754.91;105934;1260;62674;-86
2024/04/12 05:36:33;;;;;;;;;;;;;;;14.73;100.00;101757.17;105902;1258;62182;-86
2024/04/12 05:39:08;;;;;;;;;;;;;;;14.81;100.00;101756.02;106174;1256;77710;-83
2024/04/12 05:41:36;;;;;;;;;;;;;;;14.92;100.00;101757.99;106536;1257;71119;-83
2024/04/12 05:44:07;;;;;;;;;;;;;;;14.95;100.00;101754.56;105838;1258;70562;-87
2024/04/12 05:46:38;;;;;;;;;;;;;;;14.94;100.00;101756.23;105955;1262;61984;-83
2024/04/12 05:49:09;;;;;;;;;;;;;;;14.94;100.00;101751.66;105862;1260;62196;-82
2024/04/12 05:51:38;;;;;;;;;;;;;;;15.00;100.00;101750.02;105973;1256;77821;-83
2024/04/12 05:54:10;;;;;;;;;;;;;;;15.04;100.00;101754.40;106235;1256;71421;-86
2024/04/12 05:56:41;;;;;;;;;;;;;;;15.10;98.77;101752.13;105957;1257;74359;-86
2024/04/12 05:59:15;;;;;;;;;;;;;;;15.18;98.84;101749.48;106033;1260;61983;-83
2024/04/12 06:01:46;;;;;;;;;;;;;;;15.31;99.15;101750.09;106344;1262;61970;-83
2024/04/12 06:04:20;;;;;;;;;;;;;;;15.46;99.47;101749.08;106296;1257;75491;-83
2024/04/12 06:06:47;;;;;;;;;;;;;;;15.67;99.69;101751.54;106237;1258;71007;-84
2024/04/12 06:09:21;;;;;;;;;;;;;;;15.82;97.15;101748.29;106144;1257;71603;-83
2024/04/12 06:11:56;;;;;;;;;;;;;;;15.98;90.88;101747.27;106126;1257;61896;-83
2024/04/12 06:14:26;;;;;;;;;;;;;;;16.16;81.30;101745.62;106212;1255;62051;-83
2024/04/12 06:16:56;;;;;;;;;;;;;;;16.35;79.65;101748.84;106005;1256;78064;-82
2024/04/12 06:19:24;;;;;;;;;;;;;;;16.52;75.30;101747.95;105967;1259;67703;-82
2024/04/12 06:21:52;;;;;;;;;;;;;;;16.70;71.78;101749.74;106190;1257;72097;-83
2024/04/12 06:24:26;;;;;;;;;;;;;;;16.87;67.98;101749.84;106308;1256;61888;-83
2024/04/12 06:26:55;;;;;;;;;;;;;;;16.97;68.10;101745.55;106685;1257;62663;-83
2024/04/12 06:29:23;;;;;;;;;;;;;;;17.11;67.87;101745.02;106386;1257;76521;-82
2024/04/12 06:32:06;;;;;;;;;;;;;;;17.30;69.41;101746.30;106462;1258;69753;-83
2024/04/12 06:34:37;;;;;;;;;;;;;;;17.51;67.56;101742.30;107006;1257;72980;-82
2024/04/12 06:37:07;;;;;;;;;;;;;;;17.70;65.54;101741.02;106246;1257;62127;-83
2024/04/12 06:39:34;;;;;;;;;;;;;;;17.89;61.43;101738.21;105933;1262;62037;-84
2024/04/12 06:42:07;;;;;;;;;;;;;;;18.07;58.92;101736.46;106039;1257;76406;-84
2024/04/12 06:44:35;;;;;;;;;;;;;;;18.21;57.07;101739.58;106022;1256;70743;-84
2024/04/12 06:47:05;;;;;;;;;;;;;;;18.37;56.18;101734.95;106254;1262;75162;-83
2024/04/12 06:49:37;;;;;;;;;;;;;;;18.48;54.38;101730.18;105983;1257;62258;-83
2024/04/12 06:52:11;;;;;;;;;;;;;;;18.58;53.39;101728.58;106119;1256;62130;-83
2024/04/12 06:54:42;;;;;;;;;;;;;;;18.64;53.20;101723.45;105897;1257;76443;-83
2024/04/12 06:57:22;;;;;;;;;;;;;;;18.67;50.96;101726.61;105921;1257;70969;-83
2024/04/12 06:59:54;;;;;;;;;;;;;;;18.66;50.70;101725.52;106331;1257;72795;-83
2024/04/12 07:02:26;;;;;;;;;;;;;;;18.74;51.32;101728.42;105948;1257;62035;-83
2024/04/12 07:04:54;;;;;;;;;;;;;;;18.84;49.88;101726.45;106034;1260;62499;-83
2024/04/12 07:07:28;;;;;;;;;;;;;;;18.90;47.74;101729.98;106067;1257;77685;-82
2024/04/12 07:09:59;;;;;;;;;;;;;;;18.86;48.17;101733.39;106163;1260;67621;-83
2024/04/12 07:12:33;;;;;;;;;;;;;;;18.88;48.73;101735.61;106155;1257;73561;-84
2024/04/12 07:15:03;;;;;;;;;;;;;;;18.93;48.62;101731.48;105991;1256;62161;-84
2024/04/12 07:17:31;;;;;;;;;;;;;;;18.99;49.07;101729.33;106065;1257;62018;-84
2024/04/12 07:19:59;;;;;;;;;;;;;;;19.00;49.03;101731.42;106044;1257;77661;-83
2024/04/12 07:22:27;;;;;;;;;;;;;;;19.07;47.18;101732.84;105859;1265;69710;-84
2024/04/12 07:24:55;;;;;;;;;;;;;;;19.17;48.10;101734.93;106006;1257;76595;-84
2024/04/12 07:27:27;;;;;;;;;;;;;;;19.24;47.16;101736.39;106056;1262;62168;-84
2024/04/12 07:29:57;;;;;;;;;;;;;;;19.31;45.87;101736.13;106016;1256;62130;-84
2024/04/12 07:32:35;;;;;;;;;;;;;;;19.38;45.00;101735.79;106041;1260;77557;-84
2024/04/12 07:35:22;;;;;;;;;;;;;;;19.43;45.89;101736.23;105990;1261;68047;-84
2024/04/12 07:37:54;;;;;;;;;;;;;;;19.63;44.29;101733.08;106141;1256;73504;-84
2024/04/12 07:40:31;;;;;;;;;;;;;;;19.76;41.37;101731.05;106441;1256;62089;-84
2024/04/12 07:42:59;;;;;;;;;;;;;;;19.78;40.52;101734.70;106076;1261;62035;-84
2024/04/12 07:45:28;;;;;;;;;;;;;;;19.83;39.75;101737.64;106073;1257;77638;-85
2024/04/12 07:48:11;;;;;;;;;;;;;;;19.93;39.67;101736.83;105992;1256;67565;-84
2024/04/12 07:50:39;;;;;;;;;;;;;;;20.05;41.66;101730.21;105951;1262;73617;-84
2024/04/12 07:53:15;;;;;;;;;;;;;;;20.23;41.29;101725.57;106018;1256;62154;-84
2024/04/12 07:55:44;;;;;;;;;;;;;;;20.39;39.52;101719.70;106553;1256;62010;-84
2024/04/12 07:58:14;;;;;;;;;;;;;;;20.59;39.13;101722.19;106027;1256;74145;-85
2024/04/12 08:00:46;;;;;;;;;;;;;;;20.74;38.21;101717.47;105971;1260;69515;-85
2024/04/12 08:03:15;;;;;;;;;;;;;;;20.76;38.63;101715.03;105953;1260;71752;-85
2024/04/12 08:06:04;;;;;;;;;;;;;;;20.92;38.98;101713.38;106028;1257;62170;-84
2024/04/12 08:08:43;;;;;;;;;;;;;;;20.92;40.15;101713.94;106119;1257;62054;-85
2024/04/12 08:11:11;;;;;;;;;;;;;;;20.99;40.52;101709.80;106027;1257;75866;-84
2024/04/12 08:13:44;;;;;;;;;;;;;;;20.99;40.78;101708.76;105934;1256;70776;-85
2024/04/12 08:16:14;;;;;;;;;;;;;;;21.04;39.78;101711.57;106014;1257;74256;-84
2024/04/12 08:18:43;;;;;;;;;;;;;;;21.03;39.19;101707.01;105930;1257;62674;-84
2024/04/12 08:21:12;;;;;;;;;;;;;;;21.05;39.47;101706.82;106525;1256;62053;-84
2024/04/12 08:23:43;;;;;;;;;;;;;;;21.11;39.25;101705.37;105941;1260;77444;-85
2024/04/12 08:26:11;;;;;;;;;;;;;;;21.15;39.67;101706.42;105891;1256;71185;-83
2024/04/12 08:28:40;;;;;;;;;;;;;;;21.27;39.60;101700.69;106089;1256;73618;-84
2024/04/12 08:31:10;;;;;;;;;;;;;;;21.44;37.90;101698.89;105850;1263;62435;-84
2024/04/12 08:33:43;;;;;;;;;;;;;;;21.55;38.12;101696.79;105853;1257;62099;-85
2024/04/12 08:36:16;;;;;;;;;;;;;;;21.66;36.75;101696.66;106188;1256;76517;-84
2024/04/12 08:41:47;;;;;;;;;;;;;;;21.78;34.60;101690.08;105521;1264;71740;-85
2024/04/12 08:44:15;;;;;;;;;;;;;;;21.77;34.17;101691.54;106142;1256;62138;-84
2024/04/12 08:46:46;;;;;;;;;;;;;;;21.73;34.29;101688.63;106114;1256;62089;-84
2024/04/12 08:49:17;;;;;;;;;;;;;;;21.63;34.69;101688.41;106181;1261;77895;-84
2024/04/12 08:51:46;;;;;;;;;;;;;;;21.55;34.41;101690.63;106071;1256;70788;-84
2024/04/12 08:54:15;;;;;;;;;;;;;;;21.54;34.86;101691.60;105965;1257;73000;-85
2024/04/12 08:56:46;;;;;;;;;;;;;;;21.55;34.41;101691.29;105956;1259;62080;-85
2024/04/12 08:59:21;;;;;;;;;;;;;;;21.52;33.55;101690.27;105972;1256;62689;-85
2024/04/12 09:01:48;;;;;;;;;;;;;;;21.43;33.61;101685.64;106477;1256;76874;-84
2024/04/12 09:04:16;;;;;;;;;;;;;;;21.34;34.11;101683.80;106055;1256;70919;-84
2024/04/12 09:06:48;;;;;;;;;;;;;;;21.20;33.97;101684.39;105995;1260;74039;-82
2024/04/12 09:09:17;;;;;;;;;;;;;;;21.06;35.29;101685.38;106165;1259;61964;-84
2024/04/12 09:11:44;;;;;;;;;;;;;;;20.91;35.43;101685.41;106116;1259;62204;-86
2024/04/12 09:14:20;;;;;;;;;;;;;;;20.83;35.27;101683.11;107197;1256;76453;-87
2024/04/12 09:16:48;;;;;;;;;;;;;;;20.76;34.57;101682.20;106084;1256;69866;-86
2024/04/12 09:19:16;;;;;;;;;;;;;;;20.67;35.00;101687.66;106013;1256;73636;-85
2024/04/12 09:21:58;;;;;;;;;;;;;;;20.58;35.44;101683.59;106037;1256;62112;-86
2024/04/12 09:24:31;;;;;;;;;;;;;;;20.43;35.89;101678.14;106140;1262;62045;-85
2024/04/12 09:27:07;;;;;;;;;;;;;;;20.38;35.96;101674.16;106085;1256;80865;-85
2024/04/12 09:29:54;;;;;;;;;;;;;;;20.33;35.88;101669.88;106471;1256;69242;-86
2024/04/12 09:35:12;;;;;;;;;;;;;;;20.06;35.81;101660.60;105826;1260;62036;-86
2024/04/12 09:37:42;;;;;;;;;;;;;;;19.96;36.17;101661.80;105886;1259;62131;-87
2024/04/12 09:42:45;;;;;;;;;;;;;;;19.74;36.40;101659.52;106434;1258;68246;-86
2024/04/12 09:45:19;;;;;;;;;;;;;;;19.67;36.47;101658.17;105987;1257;73714;-86
2024/04/12 10:38:14;;;;;;;;;;;;;;;22.20;33.99;101591.50;106671;1256;70993;-85
2024/04/12 10:41:07;;;;;;;;;;;;;;;22.16;33.67;101588.97;105799;1260;403706;-87
2024/04/12 10:43:35;;;;;;;;;;;;;;;22.13;33.58;101585.27;105993;1256;62139;-87
2024/04/12 10:46:05;;;;;;;;;;;;;;;22.18;32.76;101588.55;106114;1257;62786;-86
2024/04/12 10:48:33;;;;;;;;;;;;;;;22.29;33.08;101589.86;106212;1259;77463;-87
2024/04/12 10:51:04;;;;;;;;;;;;;;;22.33;33.52;101584.76;106106;1260;70291;-87
2024/04/12 10:53:33;;;;;;;;;;;;;;;22.40;33.10;101580.66;106642;1256;75322;-87
2024/04/12 10:56:02;;;;;;;;;;;;;;;22.48;33.29;101576.62;106272;1257;62463;-87
2024/04/12 10:58:33;;;;;;;;;;;;;;;22.66;32.95;101571.64;106232;1258;62749;-87
2024/04/12 11:01:04;;;;;;;;;;;;;;;22.78;33.12;101571.98;106085;1259;77670;-87
2024/04/12 11:03:38;;;;;;;;;;;;;;;22.69;32.79;101566.28;106000;1261;72403;-87
2024/04/12 11:06:19;;;;;;;;;;;;;;;22.48;32.93;101564.08;106122;1257;73638;-88
2024/04/12 11:08:47;;;;;;;;;;;;;;;22.38;33.62;101558.94;106575;1257;62137;-87
2024/04/12 11:11:19;;;;;;;;;;;;;;;22.54;32.86;101562.05;106198;1260;62181;-87
2024/04/12 11:13:47;;;;;;;;;;;;;;;22.69;32.53;101552.52;106156;1260;77324;-87
2024/04/12 11:32:55;;;;;;;;;;;;;;;22.42;32.11;101522.65;106121;1260;73897;-87
2024/04/12 11:35:28;;;;;;;;;;;;;;;22.49;31.92;101517.15;106184;1258;62627;-84
2024/04/12 11:37:57;;;;;;;;;;;;;;;22.68;31.06;101513.79;106113;1256;62119;-84
2024/04/12 11:40:25;;;;;;;;;;;;;;;22.82;30.55;101507.65;106015;1256;76847;-83
2024/04/12 11:42:56;;;;;;;;;;;;;;;22.98;30.12;101506.71;106112;1262;69633;-83
2024/04/12 11:45:30;;;;;;;;;;;;;;;23.20;30.01;101499.60;106413;1262;73105;-84
2024/04/12 11:47:59;;;;;;;;;;;;;;;23.34;30.45;101501.33;106117;1256;62200;-83
2024/04/12 11:50:27;;;;;;;;;;;;;;;23.47;30.54;101502.39;105903;1262;62013;-84
2024/04/12 11:52:55;;;;;;;;;;;;;;;23.63;30.37;101496.90;106025;1256;77566;-87
2024/04/12 11:55:26;;;;;;;;;;;;;;;23.85;29.79;101490.08;106001;1256;70224;-87
2024/04/12 11:57:58;;;;;;;;;;;;;;;24.05;29.04;101483.58;106428;1256;74932;-87
2024/04/12 12:00:25;;;;;;;;;;;;;;;24.31;28.50;101476.64;106096;1256;62085;-88
2024/04/12 12:02:53;;;;;;;;;;;;;;;24.51;28.12;101472.84;106036;1262;61913;-88
2024/04/12 12:05:21;;;;;;;;;;;;;;;24.63;27.47;101474.52;106072;1256;78556;-87
2024/04/12 12:07:49;;;;;;;;;;;;;;;24.76;27.38;101473.73;106022;1258;70683;-87
2024/04/12 12:10:16;;;;;;;;;;;;;;;24.89;27.40;101472.06;106173;1256;73647;-87
2024/04/12 12:12:44;;;;;;;;;;;;;;;25.10;26.55;101476.52;106899;1259;61914;-88
2024/04/12 12:15:15;;;;;;;;;;;;;;;25.29;27.41;101468.33;106017;1256;62047;-86
2024/04/12 12:17:46;;;;;;;;;;;;;;;25.43;26.44;101458.17;106020;1256;76577;-88
2024/04/12 12:20:18;;;;;;;;;;;;;;;25.59;26.71;101456.61;106040;1256;63495;-88
2024/04/12 12:22:53;;;;;;;;;;;;;;;25.88;25.54;101458.48;105953;1256;65643;-87
2024/04/12 12:25:21;;;;;;;;;;;;;;;25.98;25.41;101454.97;106353;1257;62111;-87
2024/04/12 12:27:50;;;;;;;;;;;;;;;25.96;25.52;101456.98;106739;1256;62279;-87
2024/04/12 12:30:18;;;;;;;;;;;;;;;25.99;25.09;101454.42;106051;1256;70313;-87
2024/04/12 12:32:49;;;;;;;;;;;;;;;25.95;24.59;101444.88;106006;1257;62178;-84
2024/04/12 12:35:22;;;;;;;;;;;;;;;25.76;24.66;101438.04;106094;1256;66300;-87
2024/04/12 12:37:51;;;;;;;;;;;;;;;25.58;25.17;101434.77;106036;1257;62900;-86
2024/04/12 12:40:21;;;;;;;;;;;;;;;25.34;24.86;101436.00;106170;1260;62050;-86
2024/04/12 12:42:51;;;;;;;;;;;;;;;24.96;25.03;101435.20;106555;1257;78224;-86
2024/04/12 12:45:20;;;;;;;;;;;;;;;24.59;25.09;101434.54;106087;1256;62156;-86
2024/04/12 12:47:48;;;;;;;;;;;;;;;24.22;25.61;101431.75;106082;1261;75032;-86
2024/04/12 12:50:24;;;;;;;;;;;;;;;23.99;26.53;101421.98;106176;1260;62056;-86
2024/04/12 12:52:51;;;;;;;;;;;;;;;23.87;26.90;101414.21;105921;1261;62053;-86
2024/04/12 12:55:21;;;;;;;;;;;;;;;23.72;27.17;101413.77;105998;1258;76884;-87
2024/04/12 12:57:49;;;;;;;;;;;;;;;23.64;26.50;101409.95;106655;1256;69014;-86
2024/04/12 13:00:19;;;;;;;;;;;;;;;23.60;26.01;101409.77;106042;1257;75064;-87
2024/04/12 13:02:51;;;;;;;;;;;;;;;23.62;25.74;101408.46;106015;1260;62784;-87
2024/04/12 13:05:19;;;;;;;;;;;;;;;23.67;25.80;101401.45;106046;1256;62150;-87
2024/04/12 13:07:49;;;;;;;;;;;;;;;23.79;25.70;101399.50;106058;1258;76316;-87
2024/04/12 13:10:19;;;;;;;;;;;;;;;24.01;25.90;101394.77;106025;1261;69814;-87
2024/04/12 13:12:51;;;;;;;;;;;;;;;24.37;26.40;101393.95;106463;1256;74967;-86
2024/04/12 13:15:19;;;;;;;;;;;;;;;24.69;26.40;101391.35;105991;1256;62140;-87
2024/04/12 13:17:49;;;;;;;;;;;;;;;25.03;25.91;101389.23;106089;1256;61999;-87
2024/04/12 13:20:20;;;;;;;;;;;;;;;25.39;25.28;101384.50;106178;1257;77676;-86
2024/04/12 13:22:47;;;;;;;;;;;;;;;25.46;25.14;101383.11;106109;1256;62085;-86
2024/04/12 13:25:15;;;;;;;;;;;;;;;25.39;25.09;101384.27;106408;1256;65297;-86
2024/04/12 13:27:51;;;;;;;;;;;;;;;25.22;25.57;101379.26;105925;1256;62054;-86
2024/04/12 13:30:25;;;;;;;;;;;;;;;24.91;25.74;101376.42;105945;1256;62023;-86
2024/04/12 13:32:58;;;;;;;;;;;;;;;24.74;25.83;101372.98;106169;1258;76863;-87
2024/04/12 13:35:28;;;;;;;;;;;;;;;24.67;26.62;101370.15;106348;1256;71383;-86
2024/04/12 13:37:55;;;;;;;;;;;;;;;24.93;25.74;101370.09;106075;1262;74755;-86
2024/04/12 13:40:25;;;;;;;;;;;;;;;25.38;25.41;101364.34;106842;1257;62550;-86
2024/04/12 13:42:54;;;;;;;;;;;;;;;25.72;25.48;101361.00;106151;1256;62038;-86
2024/04/12 13:50:55;;;;;;;;;;;;;;;26.88;23.13;101357.88;106031;1259;65689;-86
2024/04/12 13:53:32;;;;;;;;;;;;;;;27.12;22.81;101358.38;106034;1258;62089;-86
2024/04/12 13:56:19;;;;;;;;;;;;;;;27.25;22.59;101358.24;106543;1262;62139;-86
2024/04/12 13:58:52;;;;;;;;;;;;;;;27.31;22.66;101354.83;106007;1257;67459;-86
2024/04/12 14:01:22;;;;;;;;;;;;;;;27.17;23.07;101349.10;106029;1256;71025;-86
2024/04/12 14:03:50;;;;;;;;;;;;;;;26.97;22.77;101346.77;106229;1257;64323;-86
2024/04/12 14:06:18;;;;;;;;;;;;;;;26.72;22.46;101345.05;105986;1257;62529;-87